Tiempo atmosférico en la estación meteorológica de Villafáfila, Zamora (690 m.)



Fecha
DESCASC
Temp. máxima en grados centígrados (hora)
DESCASC
Temp. mínima en grados centígrados (hora)
DESCASC
Temp. media en grados centígrados
DESCASC
Racha de viento máxima en m/sg (hora)
DESCASC
Velocidad máxima media en intervalos de 10 minutos(hora)
DESCASC
Precipitaciones diarias en mm
DESCASC
Precipitaciones de 00:00 a 06:00 en mm
DESCASC
Precipitaciones de 06:00 a 12:00 en mm
DESCASC
Precipitaciones de 12:00 a 18:00 en mm
DESCASC
Precipitaciones de 18:00 a 24:00 en mm
DESCASC
29-03-2020 17.8 (17:10) -0.4 (08:10) 8.7 13.06 (21:40) 10 (21:40) 0 0 0 0 0
28-03-2020 16.4 (16:20) -3.1 (07:10) 6.6 5.83 (10:30) 3.33 (09:10) 0 0 0 0 0
27-03-2020 13.6 (17:10) -2.9 (07:10) 5.4 12.22 (14:50) 7.78 (10:20) 0 0 0 0 0
26-03-2020 15.4 (17:00) -4.2 (-00:0) 5.6 10 (20:50) 6.39 (20:40) 0 0 0 0 0
25-03-2020 19.7 (16:50) 0.2 (00:00) 10 7.22 (21:50) 4.72 (20:40) 0 0 0 0 0
24-03-2020 17.1 (15:40) 2.9 (00:00) 10 11.11 (10:50) 7.5 (09:30) 0 0 0 0 0
23-03-2020 16.5 (17:20) 2.3 (00:00) 9.4 11.39 (10:50) 7.22 (11:20) 0 0 0 0 0
22-03-2020 16.2 (16:20) 6.2 (21:40) 11.2 7.78 (18:10) 5.28 (18:10) 1.2 1.2 0 0 0
21-03-2020 12.6 (13:20) 5.5 (00:00) 9.1 7.78 (09:50) 4.72 (08:40) 0.2 0 0.2 0 0
20-03-2020 14.8 (13:00) 6.2 (00:00) 10.5 10.83 (15:10) 6.11 (15:20) 3 0 0 3 0
19-03-2020 17.5 (15:30) 4.1 (00:00) 10.8 5.28 (18:20) 3.89 (18:20) 0 0 0 0 0
18-03-2020 17.3 (16:30) 3.9 (00:00) 10.6 7.22 (14:40) 4.17 (01:50) 0 0 0 0 0
17-03-2020 15.5 (16:30) 4.4 (00:00) 10 17.5 (09:50) 11.39 (08:50) 0 0 0 0 0
16-03-2020 10.6 (15:40) 1.2 (00:00) 5.9 15.56 (15:00) 11.39 (15:00) 4.8 3.8 1 0 0
15-03-2020 17.9 (14:20) -2.3 (-00:0) 7.8 17.5 (21:50) 12.78 (21:30) 2 0 0 0 2
14-03-2020 18 (18:00) -2.7 (-00:0) 7.6 4.44 (12:20) 3.33 (00:30) 0 0 0 0 0
13-03-2020 15.9 (15:40) 2.6 (23:40) 9.2 10.28 (10:50) 6.67 (10:20) 0 0 0 0 0
12-03-2020 19.8 (16:10) 7 (00:00) 13.4 11.39 (21:50) 7.5 (21:00) 0 0 0 0 0
11-03-2020 23.4 (16:30) -0.4 (00:00) 11.5 8.33 (16:50) 5.28 (16:40) 0 0 0 0 0
10-03-2020 22 (16:00) 2.4 (00:00) 12.2 10 (14:50) 6.39 (17:20) 0 0 0 0 0
09-03-2020 15.4 (17:20) -1.4 (-00:0) 7 6.67 (17:50) 4.44 (18:10) 0 0 0 0 0
08-03-2020 15.6 (16:30) -1.3 (-00:0) 7.2 12.5 (17:50) 7.78 (16:50) 0 0 0 0 0
07-03-2020 14.5 (17:00) -1.4 (-00:0) 6.6 6.67 (11:40) 4.17 (11:30) 0 0 0 0 0
06-03-2020 11.1 (15:00) 2.7 (00:00) 6.9 20.83 (13:50) 13.06 (12:30) 0 0 0 0 0
05-03-2020 14.4 (15:30) 4.1 (00:00) 9.2 18.61 (09:50) 13.06 (08:40) 0.6 0 0.6 0 0
04-03-2020 15.4 (13:10) 9.6 (00:10) 12.5 16.11 (15:50) 10 (16:10) 0 0 0 0 0
03-03-2020 17.8 (15:30) 3.9 (00:00) 10.8 17.78 (13:00) 12.78 (12:30) 0 0 0 0 0
02-03-2020 11.4 (03:40) 3.9 (00:00) 7.6 29.72 (04:20) 18.89 (04:20) 5 5 0 0 0
01-03-2020 15 (15:20) 6.4 (00:00) 10.7 23.33 (13:50) 11.67 (13:50) 7.2 0 0.2 0 7
29-02-2020 12.9 (14:10) 6 (00:00) 9.4 18.61 (14:40) 13.33 (14:40) 0 0 0 0 0

Gráficas

Temp. máximas Temp. mínimas Temp. medias Precipitaciones Rachas de viento máximas Velocidades máximas media en intervalos de 10 minutos

Datos horarios

Fecha y hora oficial Temperatura (ºC) Velocidad del viento (km/h) Dirección del viento Racha (km/h) Dirección de racha Precipitación (mm) Presión (hPa) Tendencia (hPa) Humedad (%)
2020-03-29 23:00:00 7.1 27 Nordeste 46 Nordeste 0 -- -- 74
2020-03-29 22:00:00 8.1 32 Nordeste 47 Nordeste 0 -- -- 67
2020-03-29 21:00:00 10.9 28 Nordeste 43 Este 0 -- -- 52
2020-03-29 20:00:00 15.4 7 Este 11 Este 0 -- -- 47
2020-03-29 19:00:00 17.3 3 Noroeste 9 Sudoeste 0 -- -- 35
2020-03-29 18:00:00 17.7 5 Este 14 Este 0 -- -- 36
2020-03-29 17:00:00 17.7 4 Noroeste 11 Noroeste 0 -- -- 37
2020-03-29 16:00:00 16.5 6 Sur 13 Nordeste 0 -- -- 40
2020-03-29 15:00:00 16 6 Este 23 Este 0 -- -- 42
2020-03-29 14:00:00 14.9 8 Nordeste 17 Nordeste 0 -- -- 46
2020-03-29 13:00:00 13.3 8 Nordeste 17 Nordeste 0 -- -- 53
2020-03-29 12:00:00 11.4 11 Nordeste 18 Nordeste 0 -- -- 57
2020-03-29 11:00:00 9.2 13 Nordeste 22 Nordeste 0 -- -- 68
2020-03-29 10:00:00 4.6 10 Norte 18 Norte 0 -- -- 85
2020-03-29 09:00:00 0.4 12 Noroeste 18 Noroeste 0 -- -- 91
2020-03-29 08:00:00 -0.3 12 Noroeste 17 Noroeste 0 -- -- 89
2020-03-29 07:00:00 -0.2 12 Noroeste 18 Norte 0 -- -- 90
2020-03-29 06:00:00 -0.1 11 Norte 15 Norte 0 -- -- 90
2020-03-29 05:00:00 -0.1 10 Norte 13 Norte 0 -- -- 90
2020-03-29 03:00:00 0.4 8 Noroeste 12 Noroeste 0 -- -- 84
2020-03-29 01:00:00 1.7 5 Nordeste 15 Este 0 -- -- 83
2020-03-29 00:00:00 2.2 2 Sudoeste 5 Oeste 0 -- -- 80
2020-03-28 23:00:00 3.5 2 Nordeste 6 Norte 0 -- -- 76
2020-03-28 22:00:00 5.4 2 Nordeste 9 Noroeste 0 -- -- 69
2020-03-28 21:00:00 6.7 6 Noroeste 11 Oeste 0 -- -- 70
2020-03-28 20:00:00 10.9 3 Noroeste 7 Noroeste 0 -- -- 58
2020-03-28 19:00:00 14.2 5 Norte 9 Norte 0 -- -- 48
2020-03-28 18:00:00 15.9 8 Norte 12 Norte 0 -- -- 35
2020-03-28 17:00:00 15.8 4 Nordeste 14 Norte 0 -- -- 34
2020-03-28 16:00:00 16.3 8 Este 18 Este 0 -- -- 34
2020-03-28 15:00:00 15.3 6 Nordeste 14 Nordeste 0 -- -- 37
2020-03-28 14:00:00 14.1 6 Norte 14 Este 0 -- -- 42
2020-03-28 13:00:00 12.9 3 Este 13 Este 0 -- -- 43
2020-03-28 12:00:00 11.8 7 Este 17 Este 0 -- -- 50
2020-03-28 11:00:00 9.9 9 Nordeste 21 Nordeste 0 -- -- 56
2020-03-28 10:00:00 6.4 8 Nordeste 16 Norte 0 -- -- 69
2020-03-28 09:00:00 2.5 11 Norte 14 Norte 0 -- -- 84
2020-03-28 08:00:00 -1.7 10 Norte 15 Norte 0 -- -- 89
2020-03-28 07:00:00 -3 9 Norte 15 Norte 0 -- -- 88
2020-03-28 06:00:00 -2.4 10 Noroeste 13 Noroeste 0 -- -- 89
2020-03-28 05:00:00 -2.3 9 Noroeste 12 Noroeste 0 -- -- 87
2020-03-28 04:00:00 -2.2 9 Noroeste 12 Noroeste 0 -- -- 86
2020-03-28 03:00:00 -1.5 3 Noroeste 8 Noroeste 0 -- -- 84
2020-03-28 02:00:00 -0.5 4 Nordeste 13 Nordeste 0 -- -- 83
2020-03-28 01:00:00 0.3 0 Calma 11 Nordeste 0 -- -- 77
2020-03-28 00:00:00 0.3 5 Nordeste 12 Nordeste 0 -- -- 80
2020-03-27 23:00:00 0.9 8 Nordeste 15 Este 0 -- -- 75
2020-03-27 22:00:00 1.8 5 Norte 7 Norte 0 -- -- 75
2020-03-27 21:00:00 4 0 Calma 8 Nordeste 0 -- -- 68
2020-03-27 20:00:00 7.7 5 Nordeste 11 Nordeste 0 -- -- 57
2020-03-27 19:00:00 12.1 7 Este 35 Este 0 -- -- 42
2020-03-27 18:00:00 13 17 Este 32 Este 0 -- -- 34
2020-03-27 17:00:00 13.5 14 Este 41 Este 0 -- -- 34
2020-03-27 16:00:00 13.3 19 Este 35 Nordeste 0 -- -- 36
2020-03-27 15:00:00 12.3 21 Nordeste 44 Nordeste 0 -- -- 42
2020-03-27 14:00:00 11.3 24 Este 40 Nordeste 0 -- -- 43
2020-03-27 13:00:00 9.9 22 Este 41 Nordeste 0 -- -- 47
2020-03-27 12:00:00 8.7 26 Nordeste 39 Nordeste 0 -- -- 47
2020-03-27 11:00:00 7 26 Nordeste 40 Nordeste 0 -- -- 55
2020-03-27 10:00:00 5.2 24 Nordeste 37 Nordeste 0 -- -- 67
2020-03-27 09:00:00 2.7 16 Nordeste 25 Nordeste 0 -- -- 77
2020-03-27 08:00:00 -1.8 12 Norte 21 Norte 0 -- -- 89
2020-03-27 07:00:00 -2.8 12 Norte 14 Norte 0 -- -- 87
2020-03-27 06:00:00 -1.7 8 Nordeste 22 Nordeste 0 -- -- 84
2020-03-27 05:00:00 -1.3 15 Nordeste 19 Nordeste 0 -- -- 87
2020-03-27 04:00:00 -1 11 Este 19 Este 0 -- -- 86
2020-03-27 03:00:00 -0.2 13 Nordeste 23 Nordeste 0 -- -- 84
2020-03-27 02:00:00 1 16 Nordeste 24 Este 0 -- -- 82
2020-03-27 01:00:00 1.9 18 Nordeste 24 Nordeste 0 -- -- 82
2020-03-27 00:00:00 2.8 15 Nordeste 25 Este 0 -- -- 80
2020-03-26 23:00:00 3.4 13 Nordeste 21 Nordeste 0 -- -- 77
2020-03-26 22:00:00 4.6 14 Nordeste 30 Nordeste 0 -- -- 73
2020-03-26 21:00:00 6.6 21 Nordeste 36 Nordeste 0 -- -- 66
2020-03-26 20:00:00 7.9 14 Nordeste 21 Este 0 -- -- 62
2020-03-26 19:00:00 12.9 17 Este 21 Este 0 -- -- 44
2020-03-26 18:00:00 14.9 7 Este 14 Este 0 -- -- 34
2020-03-26 17:00:00 15.4 8 Nordeste 17 Este 0 -- -- 35
2020-03-26 16:00:00 15.1 5 Este 19 Nordeste 0 -- -- 35
2020-03-26 15:00:00 14.4 8 Nordeste 16 Nordeste 0 -- -- 37
2020-03-26 14:00:00 13 6 Este 15 Este 0 -- -- 41
2020-03-26 13:00:00 11.6 4 Sur 13 Sur 0 -- -- 46
2020-03-26 12:00:00 10.1 5 Sur 13 Sudeste 0 -- -- 51
2020-03-26 11:00:00 8 4 Sur 10 Sur 0 -- -- 62
2020-03-26 10:00:00 5.1 3 Sur 7 Sudoeste 0 -- -- 69
2020-03-26 09:00:00 1 4 Norte 5 Noroeste 0 -- -- 88
2020-03-26 08:00:00 -2.8 2 Noroeste 6 Nordeste 0 -- -- 90
2020-03-26 07:00:00 -4.2 7 Este 15 Este 0 -- -- 89
2020-03-26 06:00:00 -4.2 7 Norte 9 Nordeste 0 -- -- 85
2020-03-26 05:00:00 -3.1 5 Noroeste 7 Noroeste 0 -- -- 85
2020-03-26 04:00:00 -2.2 2 Norte 7 Sudoeste 0 -- -- 82
2020-03-26 03:00:00 -1.4 6 Este 8 Nordeste 0 -- -- 84
2020-03-26 02:00:00 -0.4 4 Este 13 Norte 0 -- -- 76
2020-03-26 01:00:00 0.5 12 Norte 13 Norte 0 -- -- 74
2020-03-26 00:00:00 0.9 5 Noroeste 12 Oeste 0 -- -- 76
2020-03-25 23:00:00 3 9 Norte 18 Nordeste 0 -- -- 69
2020-03-25 22:00:00 5.3 15 Norte 26 Norte 0 -- -- 64
2020-03-25 21:00:00 6.5 17 Norte 25 Norte 0 -- -- 65
2020-03-25 20:00:00 9 14 Norte 19 Norte 0 -- -- 65
2020-03-25 19:00:00 14.9 6 Norte 13 Sudoeste 0 -- -- 55
2020-03-25 18:00:00 16.8 4 Norte 18 Sudoeste 0 -- -- 46
2020-03-25 17:00:00 19.4 6 Sudoeste 17 Este 0 -- -- 34
2020-03-25 16:00:00 18.6 5 Norte 16 Sudoeste 0 -- -- 37
2020-03-25 15:00:00 19.1 5 Nordeste 19 Norte 0 -- -- 36
2020-03-25 14:00:00 18.2 12 Norte 21 Norte 0 -- -- 34
2020-03-25 13:00:00 16.1 5 Sudoeste 23 Oeste 0 -- -- 55
2020-03-25 12:00:00 14.1 6 Sudoeste 14 Sudoeste 0 -- -- 60
2020-03-25 11:00:00 12 3 Oeste 11 Noroeste 0 -- -- 68
2020-03-25 10:00:00 8.8 6 Norte 9 Noroeste 0 -- -- 82
2020-03-25 09:00:00 5.2 3 Noroeste 10 Noroeste 0 -- -- 94
2020-03-25 08:00:00 1.4 6 Norte 10 Noroeste 0 -- -- 94
2020-03-25 07:00:00 0.5 6 Norte 8 Norte 0 -- -- 92
2020-03-25 06:00:00 1.4 4 Noroeste 8 Noroeste 0 -- -- 93
2020-03-25 05:00:00 1.5 5 Norte 9 Noroeste 0 -- -- 92
2020-03-25 04:00:00 2.2 7 Noroeste 9 Noroeste 0 -- -- 92
2020-03-25 03:00:00 2.7 9 Noroeste 13 Noroeste 0 -- -- 92
2020-03-25 02:00:00 3.2 9 Noroeste 13 Noroeste 0 -- -- 91
2020-03-25 01:00:00 3.5 5 Norte 13 Norte 0 -- -- 89
2020-03-25 00:00:00 3.8 10 Norte 12 Norte 0 -- -- 88
2020-03-24 23:00:00 5.5 4 Norte 13 Nordeste 0 -- -- 85
2020-03-24 22:00:00 6.3 9 Nordeste 15 Nordeste 0 -- -- 83
2020-03-24 21:00:00 8.1 6 Este 7 Este 0 -- -- 77
2020-03-24 20:00:00 10.9 8 Nordeste 10 Nordeste 0 -- -- 68
2020-03-24 19:00:00 15 10 Nordeste 27 Este 0 -- -- 56
2020-03-24 18:00:00 16.2 19 Este 36 Este 0 -- -- 48
2020-03-24 17:00:00 16.3 23 Este 37 Este 0 -- -- 49
2020-03-24 16:00:00 16.2 21 Nordeste 37 Este 0 -- -- 51
2020-03-24 15:00:00 15.7 22 Nordeste 32 Nordeste 0 -- -- 51
2020-03-24 14:00:00 16.1 21 Este 33 Este 0 -- -- 53
2020-03-24 13:00:00 15.3 22 Este 35 Este 0 -- -- 59
2020-03-24 12:00:00 14 26 Este 38 Nordeste 0 -- -- 66
2020-03-24 11:00:00 12.7 26 Nordeste 40 Este 0 -- -- 71
2020-03-24 10:00:00 10.7 23 Nordeste 34 Nordeste 0 -- -- 79
2020-03-24 09:00:00 8.3 19 Nordeste 37 Nordeste 0 -- -- 87
2020-03-24 08:00:00 5.2 11 Nordeste 18 Nordeste 0 -- -- 96
2020-03-24 07:00:00 3.4 4 Norte 15 Nordeste 0 -- -- 93
2020-03-24 06:00:00 3.3 8 Norte 13 Nordeste 0 -- -- 93
2020-03-24 05:00:00 4.2 9 Nordeste 17 Nordeste 0 -- -- 93
2020-03-24 04:00:00 4 10 Nordeste 14 Nordeste 0 -- -- 93
2020-03-24 03:00:00 4.6 8 Nordeste 18 Nordeste 0 -- -- 91
2020-03-24 02:00:00 4.8 14 Nordeste 22 Nordeste 0 -- -- 91
2020-03-24 01:00:00 5.6 10 Nordeste 18 Nordeste 0 -- -- 90
2020-03-24 00:00:00 6.6 15 Este 19 Nordeste 0 -- -- 90
2020-03-23 23:00:00 7.3 14 Nordeste 19 Este 0 -- -- 87
2020-03-23 22:00:00 7 13 Nordeste 21 Nordeste 0 -- -- 84
2020-03-23 21:00:00 9 12 Nordeste 21 Nordeste 0 -- -- 76
2020-03-23 20:00:00 11.7 14 Este 23 Este 0 -- -- 68
2020-03-23 19:00:00 14.4 14 Nordeste 31 Este 0 -- -- 59
2020-03-23 18:00:00 14.8 10 Nordeste 24 Nordeste 0 -- -- 57
2020-03-23 17:00:00 16.2 17 Nordeste 28 Este 0 -- -- 52
2020-03-23 16:00:00 15.8 18 Este 35 Este 0 -- -- 56
2020-03-23 15:00:00 15.8 21 Este 38 Este 0 -- -- 58
2020-03-23 14:00:00 15.1 22 Este 41 Este 0 -- -- 58
2020-03-23 13:00:00 14.1 17 Nordeste 35 Este 0 -- -- 64
2020-03-23 12:00:00 13.4 23 Nordeste 37 Este 0 -- -- 67
2020-03-23 11:00:00 12.1 22 Nordeste 41 Nordeste 0 -- -- 71
2020-03-23 10:00:00 9.7 26 Nordeste 37 Nordeste 0 -- -- 79
2020-03-23 09:00:00 6.5 9 Norte 16 Norte 0 -- -- 93
2020-03-23 08:00:00 2.5 9 Noroeste 15 Norte 0 -- -- 93
2020-03-23 07:00:00 3.8 11 Norte 17 Norte 0 -- -- 92
2020-03-23 06:00:00 4.4 6 Noroeste 14 Norte 0 -- -- 92
2020-03-23 05:00:00 4.9 10 Nordeste 22 Nordeste 0 -- -- 91
2020-03-23 04:00:00 4.9 12 Norte 21 Nordeste 0 -- -- 91
2020-03-23 03:00:00 5.8 17 Nordeste 23 Nordeste 0 -- -- 89
2020-03-23 02:00:00 6.4 16 Nordeste 26 Nordeste 0 -- -- 87
2020-03-23 01:00:00 7.5 15 Nordeste 22 Nordeste 0 -- -- 85
2020-03-23 00:00:00 8.2 12 Nordeste 24 Nordeste 0 -- -- 84
2020-03-22 23:00:00 8.2 8 Nordeste 14 Norte 0 -- -- 90
2020-03-22 22:00:00 6.9 10 Norte 17 Norte 0 -- -- 93
2020-03-22 21:00:00 7 5 Noroeste 7 Este 0 -- -- 87
2020-03-22 20:00:00 9.4 5 Nordeste 13 Este 0 -- -- 81
2020-03-22 19:00:00 12 7 Sur 28 Sudeste 0 -- -- 78
2020-03-22 18:00:00 14.7 18 Sur 26 Sur 0 -- -- 64
2020-03-22 17:00:00 15.1 17 Sur 23 Sur 0 -- -- 62
2020-03-22 16:00:00 15.9 3 Nordeste 12 Este 0 -- -- 55
2020-03-22 15:00:00 15.1 6 Sur 15 Nordeste 0 -- -- 66
2020-03-22 14:00:00 13.4 8 Nordeste 17 Este 0 -- -- 73
2020-03-22 13:00:00 13.1 5 Nordeste 12 Nordeste 0 -- -- 72
2020-03-22 12:00:00 11.7 4 Nordeste 11 Nordeste 0 -- -- 80
2020-03-22 11:00:00 10.5 7 Norte 13 Norte 0 -- -- 86
2020-03-22 10:00:00 9.1 10 Norte 15 Noroeste 0 -- -- 91
2020-03-22 09:00:00 8 7 Noroeste 11 Noroeste 0 -- -- 94
2020-03-22 08:00:00 6.4 0 Calma 8 Nordeste 0 -- -- 94
2020-03-22 07:00:00 6.6 4 Nordeste 8 Nordeste 0 -- -- 94
2020-03-22 06:00:00 6.8 7 Norte 10 Nordeste 0 -- -- 94
2020-03-22 05:00:00 7.4 6 Este 10 Nordeste 0 -- -- 94
2020-03-22 04:00:00 7.7 6 Nordeste 10 Este 0.6 -- -- 94
2020-03-22 03:00:00 7.9 5 Nordeste 6 Nordeste 0.4 -- -- 93
2020-03-22 02:00:00 8.1 4 Sudoeste 10 Sur 0.2 -- -- 92
2020-03-22 01:00:00 8.3 5 Sur 11 Sur 0 -- -- 93
2020-03-22 00:00:00 8.3 6 Sur 10 Sur 0 -- -- 92
2020-03-21 23:00:00 8.5 3 Sudoeste 12 Sudoeste 0 -- -- 91
2020-03-21 22:00:00 8.6 7 Sur 17 Sur 0 -- -- 89
2020-03-21 21:00:00 9.2 7 Sur 14 Sudoeste 0 -- -- 87
2020-03-21 20:00:00 9.5 6 Sudoeste 20 Sudoeste 0 -- -- 87
2020-03-21 19:00:00 10.8 12 Sudoeste 22 Sudoeste 0 -- -- 82
2020-03-21 18:00:00 12.4 0 Calma 6 Sur 0 -- -- 71
2020-03-21 17:00:00 12.2 4 Sudoeste 13 Sudeste 0 -- -- 73
2020-03-21 16:00:00 11.8 7 Sur 11 Sudoeste 0 -- -- 75
2020-03-21 15:00:00 11.8 8 Sur 12 Sudoeste 0 -- -- 76
2020-03-21 14:00:00 12.3 4 Nordeste 13 Sudeste 0 -- -- 71
2020-03-21 13:00:00 11.8 8 Sudoeste 15 Sur 0 -- -- 75
2020-03-21 12:00:00 10.2 6 Sur 10 Sur 0 -- -- 80
2020-03-21 11:00:00 10 7 Este 18 Nordeste 0 -- -- 83
2020-03-21 10:00:00 9.6 15 Nordeste 28 Este 0 -- -- 86
2020-03-21 09:00:00 8.2 14 Nordeste 27 Nordeste 0 -- -- 90
2020-03-21 08:00:00 6.5 13 Nordeste 19 Nordeste 0 -- -- 93
2020-03-21 07:00:00 6.5 6 Nordeste 17 Nordeste 0.2 -- -- 93
2020-03-21 06:00:00 6.7 11 Nordeste 19 Nordeste 0 -- -- 93
2020-03-21 05:00:00 6.7 10 Nordeste 18 Nordeste 0 -- -- 92
2020-03-21 04:00:00 7 14 Nordeste 21 Nordeste 0 -- -- 94
2020-03-21 03:00:00 6.7 11 Nordeste 16 Nordeste 0 -- -- 95
2020-03-21 02:00:00 5.9 12 Nordeste 15 Este 0 -- -- 94
2020-03-21 01:00:00 5.6 8 Nordeste 12 Nordeste 0 -- -- 93
2020-03-21 00:00:00 6.2 9 Nordeste 14 Nordeste 0 -- -- 92
2020-03-20 23:00:00 6.9 10 Nordeste 17 Nordeste 0 -- -- 92
2020-03-20 22:00:00 7.4 10 Nordeste 12 Nordeste 0 -- -- 91
2020-03-20 21:00:00 7.7 8 Este 13 Este 0 -- -- 87
2020-03-20 20:00:00 10.3 7 Este 8 Este 0 -- -- 87
2020-03-20 19:00:00 11.2 5 Noroeste 8 Noroeste 0 -- -- 83
2020-03-20 18:00:00 11.7 6 Oeste 12 Sudoeste 0 -- -- 79
2020-03-20 17:00:00 11.6 9 Oeste 23 Oeste 0 -- -- 85
2020-03-20 16:00:00 11.6 19 Oeste 39 Sudoeste 3 -- -- 86
2020-03-20 15:00:00 14.1 17 Sudeste 30 Sur 0 -- -- 71
2020-03-20 14:00:00 14.7 15 Sudeste 29 Sudeste 0 -- -- 68
2020-03-20 13:00:00 14.8 17 Este 26 Este 0 -- -- 68
2020-03-20 12:00:00 12.7 15 Este 24 Sudeste 0 -- -- 75
2020-03-20 11:00:00 11.4 17 Este 24 Este 0 -- -- 79
2020-03-20 10:00:00 9.7 14 Nordeste 21 Nordeste 0 -- -- 85
2020-03-20 09:00:00 8.5 10 Nordeste 17 Nordeste 0 -- -- 91
2020-03-20 08:00:00 7.8 7 Este 12 Este 0 -- -- 90
2020-03-20 07:00:00 7.7 8 Nordeste 10 Nordeste 0 -- -- 89
2020-03-20 06:00:00 8.5 0 Calma 8 Sur 0 -- -- 85
2020-03-20 05:00:00 9.2 3 Sudeste 13 Este 0 -- -- 86
2020-03-20 04:00:00 8.9 6 Este 16 Este 0 -- -- 87
2020-03-20 03:00:00 9.4 13 Este 21 Este 0 -- -- 87
2020-03-20 02:00:00 9.5 11 Nordeste 16 Nordeste 0 -- -- 87
2020-03-20 01:00:00 9.3 14 Nordeste 18 Nordeste 0 -- -- 90
2020-03-20 00:00:00 8.2 6 Sudeste 8 Sudeste 0 -- -- 90
2020-03-19 23:00:00 7.7 2 Nordeste 7 Nordeste 0 -- -- 88
2020-03-19 22:00:00 8.6 3 Nordeste 7 Norte 0 -- -- 85
2020-03-19 21:00:00 9.7 5 Norte 9 Sudeste 0 -- -- 83
2020-03-19 20:00:00 11.8 3 Sudeste 12 Sudeste 0 -- -- 75
2020-03-19 19:00:00 13.5 10 Sudeste 19 Sur 0 -- -- 72
2020-03-19 18:00:00 16 11 Este 18 Este 0 -- -- 69
2020-03-19 17:00:00 16.9 12 Nordeste 18 Nordeste 0 -- -- 67
2020-03-19 16:00:00 17.4 9 Nordeste 15 Nordeste 0 -- -- 63
2020-03-19 15:00:00 16.9 6 Este 14 Sur 0 -- -- 62
2020-03-19 14:00:00 15.8 8 Sudeste 13 Sudeste 0 -- -- 61
2020-03-19 13:00:00 14.5 5 Este 11 Este 0 -- -- 72
2020-03-19 12:00:00 13.8 5 Norte 11 Nordeste 0 -- -- 73
2020-03-19 11:00:00 12.7 5 Nordeste 12 Nordeste 0 -- -- 80
2020-03-19 10:00:00 10 8 Nordeste 12 Nordeste 0 -- -- 90
2020-03-19 09:00:00 6.5 9 Norte 13 Norte 0 -- -- 97
2020-03-19 08:00:00 4.3 10 Norte 12 Noroeste 0 -- -- 95
2020-03-19 07:00:00 4.5 10 Noroeste 13 Noroeste 0 -- -- 95
2020-03-19 06:00:00 4.5 8 Noroeste 9 Noroeste 0 -- -- 94
2020-03-19 05:00:00 4.7 8 Norte 13 Norte 0 -- -- 94
2020-03-19 04:00:00 5.2 9 Noroeste 14 Noroeste 0 -- -- 94
2020-03-19 03:00:00 5.6 9 Noroeste 10 Noroeste 0 -- -- 93
2020-03-19 02:00:00 6.6 5 Noroeste 13 Norte 0 -- -- 93
2020-03-19 01:00:00 6.4 9 Norte 12 Norte 0 -- -- 93
2020-03-19 00:00:00 7 6 Nordeste 10 Nordeste 0 -- -- 90
2020-03-18 23:00:00 8.6 2 Norte 6 Norte 0 -- -- 88
2020-03-18 22:00:00 9.6 6 Noroeste 8 Norte 0 -- -- 89
2020-03-18 21:00:00 10.5 8 Norte 9 Norte 0 -- -- 85
2020-03-18 20:00:00 12.5 6 Nordeste 9 Nordeste 0 -- -- 81
2020-03-18 19:00:00 15.2 7 Nordeste 11 Nordeste 0 -- -- 75
2020-03-18 18:00:00 16.7 8 Nordeste 16 Nordeste 0 -- -- 67
2020-03-18 17:00:00 16.9 11 Nordeste 18 Nordeste 0 -- -- 67
2020-03-18 16:00:00 16.9 12 Nordeste 24 Nordeste 0 -- -- 67
2020-03-18 15:00:00 16.2 15 Nordeste 26 Nordeste 0 -- -- 67
2020-03-18 14:00:00 15.7 12 Norte 20 Este 0 -- -- 70
2020-03-18 13:00:00 13.7 14 Nordeste 22 Nordeste 0 -- -- 75
2020-03-18 12:00:00 12.2 14 Este 23 Este 0 -- -- 81
2020-03-18 11:00:00 11.2 15 Nordeste 22 Nordeste 0 -- -- 81
2020-03-18 10:00:00 9.7 13 Nordeste 21 Nordeste 0 -- -- 88
2020-03-18 09:00:00 6.4 8 Nordeste 12 Norte 0 -- -- 96
2020-03-18 08:00:00 4 8 Norte 14 Norte 0 -- -- 94
2020-03-18 07:00:00 4.2 11 Norte 15 Norte 0 -- -- 94
2020-03-18 06:00:00 5 11 Norte 18 Noroeste 0 -- -- 94
2020-03-18 05:00:00 5.6 13 Norte 22 Norte 0 -- -- 94
2020-03-18 04:00:00 6.1 14 Norte 18 Noroeste 0 -- -- 94
2020-03-18 03:00:00 6.3 15 Norte 18 Noroeste 0 -- -- 94
2020-03-18 02:00:00 6.7 14 Norte 20 Norte 0 -- -- 94
2020-03-18 01:00:00 6 12 Noroeste 19 Noroeste 0 -- -- 93
2020-03-18 00:00:00 6.8 9 Norte 19 Nordeste 0 -- -- 91
2020-03-17 23:00:00 7.1 10 Norte 24 Este 0 -- -- 91
2020-03-17 22:00:00 7.7 12 Nordeste 21 Nordeste 0 -- -- 90
2020-03-17 21:00:00 8.9 12 Nordeste 28 Nordeste 0 -- -- 88
2020-03-17 20:00:00 10.4 21 Nordeste 29 Nordeste 0 -- -- 84
2020-03-17 19:00:00 12.6 22 Nordeste 48 Este 0 -- -- 77
2020-03-17 18:00:00 14 27 Nordeste 41 Nordeste 0 -- -- 71
2020-03-17 17:00:00 15.1 29 Nordeste 41 Nordeste 0 -- -- 66
2020-03-17 16:00:00 14.5 27 Nordeste 43 Nordeste 0 -- -- 68
2020-03-17 15:00:00 14 30 Este 52 Nordeste 0 -- -- 70
2020-03-17 14:00:00 13.8 33 Nordeste 48 Este 0 -- -- 67
2020-03-17 13:00:00 12.8 35 Nordeste 49 Nordeste 0 -- -- 70
2020-03-17 12:00:00 11.9 37 Nordeste 53 Nordeste 0 -- -- 72
2020-03-17 11:00:00 10.8 39 Nordeste 54 Nordeste 0 -- -- 72
2020-03-17 10:00:00 8.8 33 Nordeste 63 Nordeste 0 -- -- 77
2020-03-17 09:00:00 7.9 37 Nordeste 54 Nordeste 0 -- -- 79
2020-03-17 08:00:00 6.6 31 Nordeste 45 Nordeste 0 -- -- 81
2020-03-17 07:00:00 6.4 22 Nordeste 36 Nordeste 0 -- -- 80
2020-03-17 06:00:00 5.8 15 Nordeste 26 Nordeste 0 -- -- 81
2020-03-17 05:00:00 5.4 16 Nordeste 24 Nordeste 0 -- -- 83
2020-03-17 04:00:00 4.7 16 Nordeste 25 Norte 0 -- -- 81
2020-03-17 03:00:00 4.5 16 Norte 28 Norte 0 -- -- 79
2020-03-17 02:00:00 5.6 15 Nordeste 23 Nordeste 0 -- -- 76
2020-03-17 01:00:00 6 15 Nordeste 20 Norte 0 -- -- 75
2020-03-17 00:00:00 5.9 12 Nordeste 22 Nordeste 0 -- -- 78
2020-03-16 23:00:00 6.1 15 Norte 31 Norte 0 -- -- 73
2020-03-16 22:00:00 6.7 22 Norte 38 Norte 0 -- -- 65
2020-03-16 21:00:00 7.2 25 Norte 44 Norte 0 -- -- 62
2020-03-16 20:00:00 7.9 29 Norte 48 Norte 0 -- -- 61
2020-03-16 19:00:00 8.5 31 Norte 49 Norte 0 -- -- 58
2020-03-16 18:00:00 8.6 12 Nordeste 24 Nordeste 0 -- -- 70
2020-03-16 17:00:00 9.2 17 Nordeste 42 Norte 0 -- -- 63
2020-03-16 16:00:00 10 31 Norte 53 Norte 0 -- -- 54
2020-03-16 15:00:00 9.8 41 Norte 56 Norte 0 -- -- 56
2020-03-16 14:00:00 8.8 38 Norte 54 Norte 0 -- -- 58
2020-03-16 13:00:00 8.1 28 Norte 37 Norte 0 -- -- 64
2020-03-16 12:00:00 6.7 21 Norte 37 Norte 0 -- -- 73
2020-03-16 11:00:00 5.8 21 Norte 32 Norte 0 -- -- 76
2020-03-16 10:00:00 5.1 17 Norte 36 Noroeste 0 -- -- 82
2020-03-16 09:00:00 4.3 23 Norte 38 Norte 0.2 -- -- 82
2020-03-16 08:00:00 3.3 18 Noroeste 32 Noroeste 0.4 -- -- 87
2020-03-16 07:00:00 2.8 18 Norte 39 Norte 0.4 -- -- 90
2020-03-16 06:00:00 2.1 20 Noroeste 35 Noroeste 1 -- -- 94
2020-03-16 05:00:00 1.2 15 Norte 33 Noroeste 1.8 -- -- 93
2020-03-16 04:00:00 1.9 24 Noroeste 40 Noroeste 1 -- -- 92
2020-03-16 03:00:00 2.5 26 Noroeste 53 Noroeste 0 -- -- 90
2020-03-16 02:00:00 3.1 30 Noroeste 43 Noroeste 0 -- -- 85
2020-03-16 01:00:00 3 27 Noroeste 37 Noroeste 0 -- -- 87
2020-03-16 00:00:00 2.6 25 Noroeste 40 Noroeste 0 -- -- 90
2020-03-15 23:00:00 2.7 26 Noroeste 49 Noroeste 0.2 -- -- 91
2020-03-15 22:00:00 2.9 35 Noroeste 63 Noroeste 1.6 -- -- 90
2020-03-15 21:00:00 5.1 36 Noroeste 52 Noroeste 0.2 -- -- 76
2020-03-15 20:00:00 9 18 Oeste 41 Oeste 0 -- -- 71
2020-03-15 19:00:00 12.5 22 Sudoeste 37 Sudoeste 0 -- -- 52
2020-03-15 18:00:00 14.5 22 Sudoeste 41 Sudoeste 0 -- -- 43
2020-03-15 17:00:00 15.1 27 Oeste 45 Sudoeste 0 -- -- 48
2020-03-15 16:00:00 16.5 23 Sudoeste 42 Sudoeste 0 -- -- 42
2020-03-15 15:00:00 16.8 30 Sudoeste 46 Sudoeste 0 -- -- 44
2020-03-15 14:00:00 17.8 23 Sudoeste 37 Sudoeste 0 -- -- 38
2020-03-15 13:00:00 15.4 11 Sur 20 Sur 0 -- -- 48
2020-03-15 12:00:00 12.7 9 Sur 13 Sudeste 0 -- -- 56
2020-03-15 11:00:00 9 6 Sur 12 Sur 0 -- -- 68
2020-03-15 10:00:00 5.5 0 Calma 7 Oeste 0 -- -- 79
2020-03-15 09:00:00 1.8 0 Calma 4 Norte 0 -- -- 89
2020-03-15 08:00:00 -1.9 3 Noroeste 9 Noroeste 0 -- -- 92
2020-03-15 07:00:00 -1.7 2 Nordeste 6 Norte 0 -- -- 90
2020-03-15 06:00:00 -0.7 0 Calma 10 Noroeste 0 -- -- 90
2020-03-15 05:00:00 -0.2 9 Noroeste 11 Noroeste 0 -- -- 90
2020-03-15 04:00:00 0.1 6 Noroeste 8 Noroeste 0 -- -- 87
2020-03-15 03:00:00 1 5 Noroeste 8 Norte 0 -- -- 86
2020-03-15 02:00:00 1.5 4 Norte 10 Noroeste 0 -- -- 85
2020-03-15 01:00:00 2.5 0 Calma 4 Oeste 0 -- -- 82
2020-03-15 00:00:00 3.5 3 Este 12 Nordeste 0 -- -- 77
2020-03-14 23:00:00 4.5 10 Nordeste 13 Nordeste 0 -- -- 77
2020-03-14 22:00:00 4.9 4 Este 6 Este 0 -- -- 77
2020-03-14 21:00:00 7.3 0 Calma 6 Este 0 -- -- 73
2020-03-14 20:00:00 11.3 3 Este -- -- 0 -- -- 59
2020-03-14 19:00:00 16.9 0 Calma 6 Oeste 0 -- -- 44
2020-03-14 18:00:00 18 0 Calma 7 Oeste 0 -- -- 37
2020-03-14 17:00:00 17.6 4 Sudeste 10 Sudeste 0 -- -- 37
2020-03-14 16:00:00 16.9 5 Sur 12 Este 0 -- -- 42
2020-03-14 15:00:00 15.6 4 Este 15 Este 0 -- -- 47
2020-03-14 14:00:00 14 5 Nordeste 16 Nordeste 0 -- -- 56
2020-03-14 13:00:00 12.3 7 Este 16 Nordeste 0 -- -- 59
2020-03-14 12:00:00 10.5 7 Este 15 Este 0 -- -- 67
2020-03-14 11:00:00 8.6 5 Este 12 Norte 0 -- -- 75
2020-03-14 10:00:00 5.1 7 Norte 12 Norte 0 -- -- 95
2020-03-14 09:00:00 0.1 5 Norte 8 Norte 0 -- -- 96
2020-03-14 08:00:00 -2.7 4 Norte 6 Noroeste 0 -- -- 94
2020-03-14 07:00:00 -2.2 0 Calma 5 Oeste 0 -- -- 93
2020-03-14 06:00:00 -1.3 0 Calma 6 Este 0 -- -- 93
2020-03-14 05:00:00 -0.5 3 Este 5 Nordeste 0 -- -- 93
2020-03-14 04:00:00 0.2 4 Norte 12 Norte 0 -- -- 93
2020-03-14 03:00:00 0.6 12 Norte 14 Norte 0 -- -- 93
2020-03-14 02:00:00 1.1 8 Noroeste 13 Norte 0 -- -- 92
2020-03-14 01:00:00 2 11 Norte 14 Norte 0 -- -- 91
2020-03-14 00:00:00 2.8 12 Norte 13 Norte 0 -- -- 90
2020-03-13 23:00:00 4.1 5 Nordeste 14 Nordeste 0 -- -- 86
2020-03-13 22:00:00 5.2 7 Nordeste 13 Nordeste 0 -- -- 86
2020-03-13 21:00:00 6.7 10 Nordeste 20 Nordeste 0 -- -- 82
2020-03-13 20:00:00 8.9 13 Este 23 Este 0 -- -- 78
2020-03-13 19:00:00 12 16 Este 28 Nordeste 0 -- -- 69
2020-03-13 18:00:00 14.3 20 Nordeste 33 Nordeste 0 -- -- 61
2020-03-13 17:00:00 15.4 16 Nordeste 30 Nordeste 0 -- -- 59
2020-03-13 16:00:00 15.8 18 Nordeste 29 Nordeste 0 -- -- 58
2020-03-13 15:00:00 15.5 18 Norte 30 Nordeste 0 -- -- 60
2020-03-13 14:00:00 15.4 18 Nordeste 33 Nordeste 0 -- -- 60
2020-03-13 13:00:00 13.9 21 Nordeste 33 Nordeste 0 -- -- 64
2020-03-13 12:00:00 12.7 21 Nordeste 30 Nordeste 0 -- -- 67
2020-03-13 11:00:00 11.4 21 Nordeste 37 Nordeste 0 -- -- 71
2020-03-13 10:00:00 9.8 20 Nordeste 31 Nordeste 0 -- -- 77
2020-03-13 09:00:00 7.5 15 Nordeste 24 Nordeste 0 -- -- 87
2020-03-13 08:00:00 6.5 15 Nordeste 26 Nordeste 0 -- -- 89
2020-03-13 07:00:00 5.9 15 Nordeste 26 Nordeste 0 -- -- 90
2020-03-13 06:00:00 6.5 19 Nordeste 27 Nordeste 0 -- -- 88
2020-03-13 05:00:00 6.1 15 Nordeste 22 Nordeste 0 -- -- 91
2020-03-13 04:00:00 5.4 13 Norte 19 Norte 0 -- -- 90
2020-03-13 03:00:00 6 15 Norte 22 Norte 0 -- -- 89
2020-03-13 02:00:00 6.4 13 Norte 22 Norte 0 -- -- 88
2020-03-13 01:00:00 7.4 15 Nordeste 26 Nordeste 0 -- -- 84
2020-03-13 00:00:00 8.1 18 Nordeste 34 Nordeste 0 -- -- 83
2020-03-12 23:00:00 8.7 20 Nordeste 37 Nordeste 0 -- -- 85
2020-03-12 22:00:00 9.9 24 Nordeste 41 Nordeste 0 -- -- 82
2020-03-12 21:00:00 11 27 Nordeste 38 Nordeste 0 -- -- 80
2020-03-12 20:00:00 12.7 22 Este 34 Nordeste 0 -- -- 78
2020-03-12 19:00:00 15.4 17 Nordeste 26 Este 0 -- -- 76
2020-03-12 18:00:00 19.1 3 Este 7 Este 0 -- -- 61
2020-03-12 17:00:00 19.2 5 Este 13 Nordeste 0 -- -- 60
2020-03-12 16:00:00 19.6 6 Este 11 Este 0 -- -- 57
2020-03-12 15:00:00 18.7 5 Este 10 Nordeste 0 -- -- 58
2020-03-12 14:00:00 17.7 3 Nordeste 9 Este 0 -- -- 63
2020-03-12 13:00:00 15.5 3 Norte 9 Norte 0 -- -- 67
2020-03-12 12:00:00 14.1 4 Noroeste 12 Noroeste 0 -- -- 71
2020-03-12 11:00:00 11.6 9 Norte 16 Norte 0 -- -- 80
2020-03-12 10:00:00 10.2 9 Norte 16 Norte 0 -- -- 82
2020-03-12 09:00:00 8.4 5 Norte 13 Noroeste 0 -- -- 90
2020-03-12 08:00:00 7 8 Noroeste 11 Noroeste 0 -- -- 91
2020-03-12 07:00:00 7.6 0 Calma 5 Noroeste 0 -- -- 88
2020-03-12 06:00:00 7.7 6 Noroeste 9 Noroeste 0 -- -- 90
2020-03-12 05:00:00 7.5 4 Noroeste 5 Noroeste 0 -- -- 89
2020-03-12 04:00:00 7.5 4 Este 9 Norte 0 -- -- 88
2020-03-12 03:00:00 7 5 Norte 9 Norte 0 -- -- 88
2020-03-12 02:00:00 7.7 2 Sur 4 Sur 0 -- -- 87
2020-03-12 01:00:00 7.9 0 Calma 5 Norte 0 -- -- 85
2020-03-12 00:00:00 9 2 Sur 5 Sudeste 0 -- -- 81
2020-03-11 23:00:00 11.1 2 Noroeste 9 Noroeste 0 -- -- 77
2020-03-11 22:00:00 14 4 Sudoeste 10 Sur 0 -- -- 67
2020-03-11 21:00:00 14.7 0 Calma 11 Sudoeste 0 -- -- 66
2020-03-11 20:00:00 17 8 Sur 17 Sudoeste 0 -- -- 56
2020-03-11 19:00:00 18.9 13 Sudoeste 22 Sudoeste 0 -- -- 50
2020-03-11 18:00:00 22 18 Sudoeste 27 Sudoeste 0 -- -- 39
2020-03-11 17:00:00 23.2 18 Sudoeste 30 Sudoeste 0 -- -- 37
2020-03-11 16:00:00 22.5 14 Sur 27 Sudoeste 0 -- -- 39
2020-03-11 15:00:00 20.9 11 Sur 21 Sudoeste 0 -- -- 43
2020-03-11 14:00:00 19.3 10 Sur 15 Sur 0 -- -- 41
2020-03-11 13:00:00 16.9 5 Sur 11 Sur 0 -- -- 54
2020-03-11 12:00:00 14.2 5 Sur 9 Sur 0 -- -- 62
2020-03-11 11:00:00 10.9 4 Sur 9 Sur 0 -- -- 66
2020-03-11 10:00:00 8 0 Calma 4 Noroeste 0 -- -- 76
2020-03-11 09:00:00 2.9 0 Calma 5 Noroeste 0 -- -- 90
2020-03-11 08:00:00 0 0 Calma 4 Norte 0 -- -- 90
2020-03-11 07:00:00 -0.3 3 Noroeste 5 Noroeste 0 -- -- 87
2020-03-11 06:00:00 0.4 0 Calma 4 Este 0 -- -- 88
2020-03-11 05:00:00 0.5 3 Norte 6 Norte 0 -- -- 87
2020-03-11 04:00:00 1.7 4 Sudeste 8 Este 0 -- -- 85
2020-03-11 03:00:00 2.4 3 Sudeste 9 Norte 0 -- -- 82
2020-03-11 02:00:00 3.1 0 Calma 3 Nordeste 0 -- -- 79
2020-03-11 01:00:00 5.3 2 Oeste 8 Sudoeste 0 -- -- 67
2020-03-11 00:00:00 8.4 5 Sudoeste 12 Sudoeste 0 -- -- 60
2020-03-10 23:00:00 8.6 8 Sudoeste 14 Sudeste 0 -- -- 61
2020-03-10 22:00:00 10.5 5 Sudoeste 10 Sudoeste 0 -- -- 52
2020-03-10 21:00:00 13 12 Sudoeste 16 Sudoeste 0 -- -- 44
2020-03-10 20:00:00 14.8 5 Sudoeste 18 Sudoeste 0 -- -- 37
2020-03-10 19:00:00 18.1 11 Sudoeste 21 Sudoeste 0 -- -- 41
2020-03-10 18:00:00 20.4 18 Sudoeste 32 Sudoeste 0 -- -- 26
2020-03-10 17:00:00 21.1 19 Sudoeste 32 Sudoeste 0 -- -- 35
2020-03-10 16:00:00 22 20 Sudoeste 30 Sudoeste 0 -- -- 36
2020-03-10 15:00:00 20.7 18 Sudoeste 36 Sudoeste 0 -- -- 38
2020-03-10 14:00:00 18.4 15 Sur 26 Sur 0 -- -- 48
2020-03-10 13:00:00 16 12 Sur 19 Sur 0 -- -- 56
2020-03-10 12:00:00 13.4 9 Sur 17 Sur 0 -- -- 65
2020-03-10 11:00:00 11 10 Sur 16 Sur 0 -- -- 75
2020-03-10 10:00:00 8.6 9 Sur 14 Sur 0 -- -- 83
2020-03-10 09:00:00 5.6 5 Sur 9 Sudoeste 0 -- -- 91
2020-03-10 08:00:00 3.9 3 Sur 9 Sur 0 -- -- 91
2020-03-10 07:00:00 3.9 4 Sur 9 Sur 0 -- -- 93
2020-03-10 06:00:00 2.5 2 Sudeste 6 Este 0 -- -- 92
2020-03-10 05:00:00 2.6 6 Este 8 Este 0 -- -- 92
2020-03-10 04:00:00 2.7 3 Sudeste 6 Sudeste 0 -- -- 91
2020-03-10 03:00:00 2.9 0 Calma 8 Noroeste 0 -- -- 89
2020-03-10 02:00:00 3.8 5 Sudoeste 8 Sur 0 -- -- 90
2020-03-10 01:00:00 3.8 0 Calma 7 Sudeste 0 -- -- 89
2020-03-10 00:00:00 4.4 4 Este 10 Sudeste 0 -- -- 86
2020-03-09 23:00:00 5.2 3 Noroeste 10 Norte 0 -- -- 84
2020-03-09 22:00:00 6.6 0 Calma 10 Sudoeste 0 -- -- 79
2020-03-09 21:00:00 9 8 Sur 14 Sur 0 -- -- 77
2020-03-09 20:00:00 10.7 10 Sur 22 Sudeste 0 -- -- 68
2020-03-09 19:00:00 13 14 Sur 21 Sur 0 -- -- 61
2020-03-09 18:00:00 14.8 15 Sur 24 Sur 0 -- -- 54
2020-03-09 17:00:00 15.2 10 Sur 21 Sur 0 -- -- 48
2020-03-09 16:00:00 14.7 8 Sur 21 Sudoeste 0 -- -- 48
2020-03-09 15:00:00 14 7 Sur 17 Sudoeste 0 -- -- 51
2020-03-09 14:00:00 13.3 7 Sudoeste 16 Oeste 0 -- -- 50
2020-03-09 13:00:00 12.5 5 Sudoeste 13 Oeste 0 -- -- 52
2020-03-09 12:00:00 11 4 Sudeste 10 Oeste 0 -- -- 60
2020-03-09 11:00:00 8.4 0 Calma 8 Oeste 0 -- -- 73
2020-03-09 10:00:00 4.6 4 Sudoeste 8 Sur 0 -- -- 87
2020-03-09 09:00:00 0.6 2 Sudeste 8 Oeste 0 -- -- 95
2020-03-09 08:00:00 -1.3 3 Sudoeste 9 Este 0 -- -- 93
2020-03-09 07:00:00 -0.8 5 Este 9 Este 0 -- -- 91
2020-03-09 06:00:00 -0.3 2 Noroeste 9 Oeste 0 -- -- 90
2020-03-09 05:00:00 1.6 6 Sudoeste 12 Sudoeste 0 -- -- 89
2020-03-09 04:00:00 2.6 8 Sudoeste 14 Sur 0 -- -- 90
2020-03-09 03:00:00 3 10 Sudoeste 16 Este 0 -- -- 90
2020-03-09 02:00:00 2.7 12 Oeste 15 Oeste 0 -- -- 89
2020-03-09 01:00:00 4.1 8 Sudoeste 19 Oeste 0 -- -- 89
2020-03-09 00:00:00 7 17 Oeste 26 Sudoeste 0 -- -- 87
2020-03-08 23:00:00 7.7 15 Sudoeste 25 Oeste 0 -- -- 88
2020-03-08 22:00:00 8.3 22 Oeste 31 Sudoeste 0 -- -- 86
2020-03-08 21:00:00 8.6 10 Sudoeste 17 Oeste 0 -- -- 83
2020-03-08 20:00:00 10 15 Oeste 30 Sudoeste 0 -- -- 77
2020-03-08 19:00:00 12.5 23 Sudoeste 40 Oeste 0 -- -- 67
2020-03-08 18:00:00 14.5 27 Sudoeste 45 Oeste 0 -- -- 61
2020-03-08 17:00:00 14.6 27 Sudoeste 40 Sudoeste 0 -- -- 64
2020-03-08 16:00:00 14.8 19 Sudoeste 27 Sudoeste 0 -- -- 65
2020-03-08 15:00:00 13.3 17 Sudoeste 33 Sudoeste 0 -- -- 67
2020-03-08 14:00:00 11.7 16 Sudoeste 25 Sudoeste 0 -- -- 72
2020-03-08 13:00:00 9.8 13 Sudoeste 25 Sudoeste 0 -- -- 75
2020-03-08 12:00:00 9.2 12 Sudoeste 24 Sudoeste 0 -- -- 73
2020-03-08 11:00:00 7.1 14 Sudoeste 25 Sudoeste 0 -- -- 87
2020-03-08 10:00:00 4.8 14 Sudoeste 21 Sudoeste 0 -- -- 94
2020-03-08 09:00:00 2.8 5 Sudoeste 13 Sur 0 -- -- 95
2020-03-08 08:00:00 1.4 10 Sur 17 Sur 0 -- -- 95
2020-03-08 07:00:00 1.1 9 Sur 15 Sur 0 -- -- 94
2020-03-08 06:00:00 0.7 7 Sur 12 Sur 0 -- -- 94
2020-03-08 05:00:00 -0.2 5 Sur 6 Norte 0 -- -- 94
2020-03-08 04:00:00 0.2 4 Sudoeste 10 Sur 0 -- -- 90
2020-03-08 03:00:00 1.3 4 Sudeste 9 Sur 0 -- -- 93
2020-03-08 02:00:00 2.3 6 Sur 12 Sur 0 -- -- 93
2020-03-08 01:00:00 1.2 3 Sudoeste 6 Sudoeste 0 -- -- 87
2020-03-08 00:00:00 2.3 0 Calma 10 Sur 0 -- -- 85
2020-03-07 23:00:00 4.8 8 Sur 12 Sudoeste 0 -- -- 86
2020-03-07 22:00:00 6.6 8 Sur 15 Sudoeste 0 -- -- 82
2020-03-07 21:00:00 7.1 8 Sur 12 Sudoeste 0 -- -- 80
2020-03-07 20:00:00 9.4 6 Sur 15 Sur 0 -- -- 74
2020-03-07 19:00:00 12.7 10 Sudoeste 20 Sudoeste 0 -- -- 58
2020-03-07 18:00:00 14.4 11 Sudoeste 22 Sudoeste 0 -- -- 52
2020-03-07 17:00:00 14.5 13 Sudoeste 21 Sudoeste 0 -- -- 51
2020-03-07 16:00:00 13.7 10 Sur 21 Sur 0 -- -- 52
2020-03-07 15:00:00 13.3 9 Sudoeste 19 Sur 0 -- -- 55
2020-03-07 14:00:00 13.1 10 Sur 17 Sur 0 -- -- 57
2020-03-07 13:00:00 12.4 4 Oeste 15 Norte 0 -- -- 57
2020-03-07 12:00:00 10.7 8 Noroeste 24 Noroeste 0 -- -- 67
2020-03-07 11:00:00 8.1 14 Noroeste 20 Oeste 0 -- -- 74
2020-03-07 10:00:00 3.6 4 Oeste 6 Sudoeste 0 -- -- 92
2020-03-07 09:00:00 1.1 0 Calma 14 Sudoeste 0 -- -- 92
2020-03-07 08:00:00 0.4 8 Sur 13 Sudoeste 0 -- -- 93
2020-03-07 07:00:00 -1.3 4 Oeste 6 Sudoeste 0 -- -- 89
2020-03-07 06:00:00 -0.3 4 Sur 9 Sur 0 -- -- 88
2020-03-07 05:00:00 -1.1 2 Sur 6 Este 0 -- -- 87
2020-03-07 04:00:00 -0.7 0 Calma 10 Oeste 0 -- -- 84
2020-03-07 03:00:00 0.7 8 Sudoeste 13 Sudoeste 0 -- -- 83
2020-03-07 02:00:00 1.8 8 Sudoeste 9 Sudoeste 0 -- -- 78
2020-03-07 01:00:00 2.3 4 Noroeste 12 Oeste 0 -- -- 72
2020-03-07 00:00:00 2.7 8 Sudoeste 19 Noroeste 0 -- -- 72
2020-03-06 23:00:00 3.6 12 Noroeste 24 Noroeste 0 -- -- 68
2020-03-06 22:00:00 3.9 19 Noroeste 30 Noroeste 0 -- -- 68
2020-03-06 21:00:00 5.4 21 Oeste 33 Oeste 0 -- -- 63
2020-03-06 20:00:00 6 19 Noroeste 40 Noroeste 0 -- -- 59
2020-03-06 19:00:00 7.5 30 Noroeste 43 Oeste 0 -- -- 54
2020-03-06 18:00:00 9.7 35 Noroeste 46 Noroeste 0 -- -- 47
2020-03-06 17:00:00 10.4 29 Noroeste 52 Noroeste 0 -- -- 42
2020-03-06 16:00:00 10.7 34 Noroeste 66 Noroeste 0 -- -- 45
2020-03-06 15:00:00 11.1 35 Noroeste 62 Noroeste 0 -- -- 45
2020-03-06 14:00:00 10.2 40 Noroeste 75 Noroeste 0 -- -- 46
2020-03-06 13:00:00 10 37 Noroeste 67 Noroeste 0 -- -- 51
2020-03-06 12:00:00 9.2 43 Noroeste 64 Noroeste 0 -- -- 52
2020-03-06 11:00:00 7.8 29 Noroeste 41 Oeste 0 -- -- 61
2020-03-06 10:00:00 7.1 16 Oeste 30 Oeste 0 -- -- 69
2020-03-06 09:00:00 4.4 14 Sudoeste 25 Sudoeste 0 -- -- 79
2020-03-06 08:00:00 2.8 18 Sudoeste 31 Oeste 0 -- -- 82
2020-03-06 07:00:00 3.6 19 Sudoeste 37 Sudoeste 0 -- -- 81
2020-03-06 06:00:00 4.2 24 Sudoeste 35 Oeste 0 -- -- 82
2020-03-06 05:00:00 4.2 23 Oeste 34 Sudoeste 0 -- -- 85
2020-03-06 04:00:00 4.5 19 Sudoeste 29 Sudoeste 0 -- -- 87
2020-03-06 03:00:00 5.6 20 Sudoeste 32 Sudoeste 0 -- -- 85
2020-03-06 02:00:00 5.3 16 Sudoeste 33 Sudoeste 0 -- -- 85
2020-03-06 01:00:00 5 22 Sudoeste 32 Sudoeste 0 -- -- 85
2020-03-06 00:00:00 5.2 21 Sudoeste 37 Sudoeste 0 -- -- 83
2020-03-05 23:00:00 5.3 21 Sudoeste 34 Sudoeste 0 -- -- 82
2020-03-05 22:00:00 4.7 10 Oeste 23 Oeste 0 -- -- 77
2020-03-05 21:00:00 6 19 Oeste 27 Oeste 0 -- -- 76
2020-03-05 20:00:00 7.9 17 Oeste 26 Oeste 0 -- -- 68
2020-03-05 19:00:00 9.4 16 Noroeste 34 Noroeste 0 -- -- 68
2020-03-05 18:00:00 11 22 Noroeste 40 Noroeste 0 -- -- 60
2020-03-05 17:00:00 13.8 33 Oeste 49 Noroeste 0 -- -- 47
2020-03-05 16:00:00 14 30 Oeste 53 Oeste 0 -- -- 57
2020-03-05 15:00:00 13.6 39 Oeste 62 Oeste 0 -- -- 60
2020-03-05 14:00:00 12.5 39 Oeste 60 Sudoeste 0 -- -- 65
2020-03-05 13:00:00 11.8 44 Oeste 66 Sudoeste 0 -- -- 62
2020-03-05 12:00:00 10.8 40 Oeste 66 Oeste 0 -- -- 67
2020-03-05 11:00:00 9.4 31 Sudoeste 57 Sudoeste 0 -- -- 75
2020-03-05 10:00:00 8.6 36 Oeste 67 Sudoeste 0 -- -- 78
2020-03-05 09:00:00 8.3 32 Oeste 67 Oeste 0.2 -- -- 77
2020-03-05 08:00:00 10.3 33 Sudoeste 52 Sudoeste 0.4 -- -- 92
2020-03-05 07:00:00 10 28 Sudoeste 51 Sudoeste 0 -- -- 93
2020-03-05 06:00:00 10.3 35 Sudoeste 53 Sudoeste 0 -- -- 91
2020-03-05 05:00:00 11 32 Sudoeste 48 Sudoeste 0 -- -- 87
2020-03-05 04:00:00 11.2 18 Sudoeste 32 Sudoeste 0 -- -- 88
2020-03-05 03:00:00 10.9 18 Sudoeste 32 Sur 0 -- -- 91
2020-03-05 02:00:00 11 21 Sudoeste 35 Sur 0 -- -- 93
2020-03-05 01:00:00 11.5 20 Sur 32 Sur 0 -- -- 90
2020-03-05 00:00:00 11.4 19 Sur 30 Sur 0 -- -- 89
2020-03-04 23:00:00 11.6 15 Sudoeste 27 Sudoeste 0 -- -- 87
2020-03-04 22:00:00 11.9 18 Sudoeste 30 Sudoeste 0 -- -- 85
2020-03-04 21:00:00 12.2 13 Sudoeste 23 Sudoeste 0 -- -- 81
2020-03-04 20:00:00 12.5 15 Sudoeste 31 Sudoeste 0 -- -- 80
2020-03-04 19:00:00 13.2 19 Sudoeste 28 Sudoeste 0 -- -- 76
2020-03-04 18:00:00 13.7 21 Sudoeste 36 Sudoeste 0 -- -- 74
2020-03-04 17:00:00 14 27 Sudoeste 52 Sudoeste 0 -- -- 74
2020-03-04 16:00:00 14.1 34 Sudoeste 58 Sudoeste 0 -- -- 72
2020-03-04 15:00:00 14.8 32 Sudoeste 52 Sudoeste 0 -- -- 71
2020-03-04 14:00:00 15.1 30 Sudoeste 44 Oeste 0 -- -- 69
2020-03-04 13:00:00 15.1 29 Sudoeste 41 Sudoeste 0 -- -- 68
2020-03-04 12:00:00 13.8 28 Sudoeste 42 Sudoeste 0 -- -- 72
2020-03-04 11:00:00 12.1 24 Sudoeste 39 Sudoeste 0 -- -- 82
2020-03-04 10:00:00 11.5 24 Sudoeste 38 Sudoeste 0 -- -- 84
2020-03-04 09:00:00 9.9 22 Sudoeste 38 Sudoeste 0 -- -- 89
2020-03-04 08:00:00 9.8 24 Sudoeste 39 Sudoeste 0 -- -- 89
2020-03-04 07:00:00 10 26 Sudoeste 40 Sudoeste 0 -- -- 91
2020-03-04 06:00:00 10.5 27 Sudoeste 36 Sudoeste 0 -- -- 89
2020-03-04 05:00:00 10.8 22 Sudoeste 37 Sudoeste 0 -- -- 90
2020-03-04 04:00:00 11.2 28 Sudoeste 44 Sudoeste 0 -- -- 88
2020-03-04 03:00:00 11.5 22 Sudoeste 43 Sudoeste 0 -- -- 87
2020-03-04 02:00:00 11.7 18 Sudoeste 34 Sudoeste 0 -- -- 88
2020-03-04 01:00:00 11.5 20 Sudoeste 31 Sudoeste 0 -- -- 90
2020-03-04 00:00:00 9.8 5 Sudeste 28 Sudoeste 0 -- -- 87
2020-03-03 23:00:00 11.2 18 Sudoeste 30 Sudoeste 0 -- -- 86
2020-03-03 22:00:00 10 16 Oeste 24 Oeste 0 -- -- 88
2020-03-03 21:00:00 10.7 17 Oeste 27 Oeste 0 -- -- 79
2020-03-03 20:00:00 11.2 10 Oeste 39 Oeste 0 -- -- 64
2020-03-03 19:00:00 14.6 31 Oeste 40 Oeste 0 -- -- 50
2020-03-03 18:00:00 15.5 26 Oeste 48 Oeste 0 -- -- 62
2020-03-03 17:00:00 16.9 30 Oeste 57 Oeste 0 -- -- 57
2020-03-03 16:00:00 17.5 38 Oeste 59 Oeste 0 -- -- 51
2020-03-03 15:00:00 17.2 36 Oeste 57 Oeste 0 -- -- 64
2020-03-03 14:00:00 16.6 41 Oeste 56 Sudoeste 0 -- -- 67
2020-03-03 13:00:00 15.2 42 Oeste 64 Sudoeste 0 -- -- 73
2020-03-03 12:00:00 13.9 42 Oeste 59 Oeste 0 -- -- 74
2020-03-03 11:00:00 11.5 31 Sudoeste 46 Sudoeste 0 -- -- 81
2020-03-03 10:00:00 9.3 28 Sudoeste 49 Sudoeste 0 -- -- 86
2020-03-03 09:00:00 8 24 Sudoeste 51 Sudoeste 0 -- -- 88
2020-03-03 08:00:00 7.7 34 Sudoeste 53 Sudoeste 0 -- -- 86
2020-03-03 07:00:00 7 27 Sudoeste 37 Sudoeste 0 -- -- 90
2020-03-03 06:00:00 5.9 24 Sudoeste 34 Sudoeste 0 -- -- 93
2020-03-03 05:00:00 5.5 18 Sudoeste 30 Sudoeste 0 -- -- 91
2020-03-03 04:00:00 5.4 18 Sur 32 Sudoeste 0 -- -- 87
2020-03-03 03:00:00 4.9 20 Sudoeste 33 Sudoeste 0 -- -- 87
2020-03-03 02:00:00 4.3 18 Sudoeste 29 Sur 0 -- -- 86
2020-03-03 01:00:00 4.3 18 Sudoeste 31 Sur 0 -- -- 84
2020-03-03 00:00:00 3.9 14 Sur 28 Sudoeste 0 -- -- 83
2020-03-02 23:00:00 4.5 18 Sudoeste 31 Sudoeste 0 -- -- 77
2020-03-02 22:00:00 4.6 18 Sudoeste 30 Sudoeste 0 -- -- 76
2020-03-02 21:00:00 5.1 15 Sudoeste 30 Oeste 0 -- -- 76
2020-03-02 20:00:00 5.7 22 Oeste 31 Oeste 0 -- -- 71
2020-03-02 19:00:00 6.8 23 Oeste 47 Oeste 0 -- -- 62
2020-03-02 18:00:00 8.1 31 Oeste 49 Oeste 0 -- -- 56
2020-03-02 17:00:00 8.6 33 Oeste 48 Oeste 0 -- -- 52
2020-03-02 16:00:00 8.9 31 Noroeste 58 Oeste 0 -- -- 54
2020-03-02 15:00:00 9.1 37 Oeste 62 Noroeste 0 -- -- 58
2020-03-02 14:00:00 9.6 36 Noroeste 64 Oeste 0 -- -- 54
2020-03-02 13:00:00 8.3 42 Oeste 62 Noroeste 0 -- -- 61
2020-03-02 12:00:00 8.4 31 Oeste 51 Oeste 0 -- -- 69
2020-03-02 11:00:00 8 32 Oeste 49 Oeste 0 -- -- 75
2020-03-02 10:00:00 6.9 27 Oeste 46 Oeste 0 -- -- 79
2020-03-02 09:00:00 6.1 22 Sudoeste 39 Oeste 0 -- -- 83
2020-03-02 08:00:00 5.8 24 Oeste 51 Oeste 0 -- -- 80
2020-03-02 07:00:00 6.4 32 Oeste 51 Oeste 0 -- -- 80
2020-03-02 06:00:00 7.6 37 Oeste 59 Oeste 0 -- -- 77
2020-03-02 05:00:00 9.1 48 Oeste 107 Oeste 0.6 -- -- 77
2020-03-02 04:00:00 11.1 46 Sudoeste 94 Sudoeste 1 -- -- 83
2020-03-02 03:00:00 10.8 45 Sudoeste 82 Sudoeste 0.6 -- -- 91
2020-03-02 02:00:00 10.7 53 Sudoeste 78 Sudoeste 0.2 -- -- 90
2020-03-02 01:00:00 10.5 43 Sudoeste 71 Sur 2.6 -- -- 90
2020-03-02 00:00:00 10.3 34 Sudoeste 59 Sudoeste 1.4 -- -- 90
2020-03-01 23:00:00 10.1 35 Sudoeste 56 Sudoeste 1.4 -- -- 90
2020-03-01 22:00:00 9 15 Sudoeste 32 Sudoeste 1.6 -- -- 91
2020-03-01 21:00:00 9.3 21 Sudoeste 31 Sudoeste 1.8 -- -- 90
2020-03-01 20:00:00 9.9 22 Sudoeste 41 Sudoeste 0.8 -- -- 86
2020-03-01 19:00:00 11.9 27 Sudoeste 49 Sudoeste 0 -- -- 64
2020-03-01 18:00:00 12.6 32 Sudoeste 53 Sudoeste 0 -- -- 55
2020-03-01 17:00:00 13.9 37 Sudoeste 55 Sudoeste 0 -- -- 49
2020-03-01 16:00:00 14.6 37 Sudoeste 54 Oeste 0 -- -- 55
2020-03-01 15:00:00 14.7 37 Sudoeste 62 Sudoeste 0 -- -- 56
2020-03-01 14:00:00 13.3 38 Sudoeste 84 Sudoeste 0 -- -- 60
2020-03-01 13:00:00 13.2 30 Oeste 50 Sudoeste 0 -- -- 67
2020-03-01 12:00:00 11.7 28 Sudoeste 45 Sudoeste 0 -- -- 72
2020-03-01 11:00:00 10.8 25 Sudoeste 40 Oeste 0 -- -- 78
2020-03-01 10:00:00 9.9 29 Sudoeste 42 Sudoeste 0 -- -- 83
2020-03-01 09:00:00 8.1 22 Sudoeste 37 Sudoeste 0 -- -- 90
2020-03-01 08:00:00 7.6 18 Sudoeste 42 Sudoeste 0 -- -- 92
2020-03-01 07:00:00 7.1 30 Sudoeste 55 Sudoeste 0.2 -- -- 90
2020-03-01 06:00:00 7 26 Sudoeste 42 Sur 0 -- -- 89
2020-03-01 05:00:00 6.8 23 Sudoeste 33 Sudoeste 0 -- -- 85
2020-03-01 04:00:00 6.7 21 Sudoeste 35 Sudoeste 0 -- -- 86
2020-03-01 03:00:00 6.5 20 Sudoeste 36 Sudoeste 0 -- -- 90
2020-03-01 02:00:00 6.9 19 Sudoeste 35 Sudoeste 0 -- -- 88
2020-03-01 01:00:00 7 22 Sudoeste 36 Sudoeste 0 -- -- 85
2020-03-01 00:00:00 7.1 22 Sudoeste 33 Sudoeste 0 -- -- 88
2020-02-29 23:00:00 7.9 19 Sudoeste 37 Sudoeste 0 -- -- 81
2020-02-29 22:00:00 8 19 Sudoeste 31 Sudoeste 0 -- -- 79
2020-02-29 21:00:00 8.2 17 Sudoeste 32 Sudoeste 0 -- -- 75
2020-02-29 20:00:00 8.6 21 Sudoeste 48 Sudoeste 0 -- -- 68
2020-02-29 19:00:00 9.7 31 Sudoeste 49 Sudoeste 0 -- -- 62
2020-02-29 18:00:00 10.6 27 Sudoeste 55 Sudoeste 0 -- -- 57
2020-02-29 17:00:00 11.4 37 Sudoeste 68 Oeste 0 -- -- 55
2020-02-29 16:00:00 12.5 35 Sudoeste 60 Sudoeste 0 -- -- 53
2020-02-29 15:00:00 12.6 40 Sudoeste 67 Sudoeste 0 -- -- 52
2020-02-29 14:00:00 12.6 44 Sudoeste 65 Sudoeste 0 -- -- 49
2020-02-29 13:00:00 12.3 37 Sudoeste 66 Oeste 0 -- -- 57
2020-02-29 12:00:00 11.4 28 Oeste 48 Sudoeste 0 -- -- 85
2020-02-29 11:00:00 9.8 24 Sudoeste 39 Sudoeste 0 -- -- 93
2020-02-29 10:00:00 9.1 21 Sudoeste 37 Sudoeste 0 -- -- 92
2020-02-29 09:00:00 8.3 21 Sur 54 Sur 0 -- -- 91
2020-02-29 08:00:00 8.7 30 Sur 50 Sur 0 -- -- 83
2020-02-29 07:00:00 8.7 20 Sur 34 Sudoeste 0 -- -- 83
2020-02-29 06:00:00 7.8 18 Sudoeste 31 Sudoeste 0 -- -- 82
2020-02-29 05:00:00 7.4 22 Sudoeste 39 Sudoeste 0 -- -- 77
2020-02-29 04:00:00 7.7 13 Sudoeste 23 Sudoeste 0 -- -- 76
2020-02-29 03:00:00 6 9 Sur 14 Sur 0 -- -- 84
2020-02-29 02:00:00 6.8 10 Sur 22 Sur 0 -- -- 80
2020-02-29 01:00:00 7.5 16 Sur 28 Sur 0 -- -- 77
2020-02-29 00:00:00 8.6 14 Sur 23 Sudoeste 0 -- -- 73